createdAt,value
2019-02-20T00:02:35.759Z,-1.21
2019-02-20T00:05:40.944Z,-1.20
2019-02-20T00:08:46.091Z,-1.38
2019-02-20T00:11:51.388Z,-1.43
2019-02-20T00:14:56.520Z,-1.31
2019-02-20T00:18:01.703Z,-1.37
2019-02-20T00:21:06.874Z,-1.25
2019-02-20T00:24:12.128Z,-1.13
2019-02-20T00:27:17.326Z,-1.11
2019-02-20T00:30:22.533Z,-0.92
2019-02-20T00:33:27.670Z,-0.97
2019-02-20T00:36:32.903Z,-0.96
2019-02-20T00:39:38.110Z,-0.98
2019-02-20T00:42:43.455Z,-1.02
2019-02-20T00:45:58.232Z,-1.04
2019-02-20T00:49:11.125Z,-0.93
2019-02-20T00:52:26.184Z,-1.00
2019-02-20T00:55:32.309Z,-0.92
2019-02-20T00:58:37.451Z,-1.02
2019-02-20T01:01:42.732Z,-1.03
2019-02-20T01:04:47.859Z,-1.02
2019-02-20T01:07:54.085Z,-1.07
2019-02-20T01:10:59.226Z,-1.09
2019-02-20T01:14:04.570Z,-1.21
2019-02-20T01:17:09.731Z,-1.17
2019-02-20T01:20:14.924Z,-1.13
2019-02-20T01:23:20.129Z,-1.15
2019-02-20T01:26:25.313Z,-1.17
2019-02-20T01:29:30.463Z,-1.15
2019-02-20T01:32:35.591Z,-1.07
2019-02-20T01:35:40.793Z,-1.04
2019-02-20T01:38:45.982Z,-1.05
2019-02-20T01:41:51.194Z,-0.99
2019-02-20T01:44:56.363Z,-0.88
2019-02-20T01:48:01.503Z,-0.79
2019-02-20T01:51:06.815Z,-0.78
2019-02-20T01:54:11.907Z,-0.92
2019-02-20T01:57:17.078Z,-0.77
2019-02-20T02:00:22.218Z,-0.72
2019-02-20T02:03:27.345Z,-0.64
2019-02-20T02:06:32.503Z,-0.71
2019-02-20T02:09:37.694Z,-0.65
2019-02-20T02:12:42.889Z,-0.65
2019-02-20T02:15:48.061Z,-0.54
2019-02-20T02:19:00.148Z,-0.51
2019-02-20T02:22:05.349Z,-0.39
2019-02-20T02:25:10.613Z,-0.38
2019-02-20T02:28:15.708Z,-0.43
2019-02-20T02:31:20.822Z,-0.29
2019-02-20T02:34:27.045Z,-0.34
2019-02-20T02:37:32.242Z,-0.35
2019-02-20T02:40:37.458Z,-0.49
2019-02-20T02:43:42.536Z,-0.50
2019-02-20T02:46:47.754Z,-0.49
2019-02-20T02:49:52.899Z,-0.41
2019-02-20T02:52:58.039Z,-0.38
2019-02-20T02:56:03.257Z,-0.41
2019-02-20T02:59:08.484Z,-0.46
2019-02-20T03:02:13.657Z,-0.52
2019-02-20T03:05:18.811Z,-0.55
2019-02-20T03:08:24.024Z,-0.52
2019-02-20T03:11:29.220Z,-0.46
2019-02-20T03:14:34.361Z,-0.53
2019-02-20T03:17:39.529Z,-0.35
2019-02-20T03:20:44.660Z,-0.46
2019-02-20T03:23:49.820Z,-0.34
2019-02-20T03:26:54.960Z,-0.43
2019-02-20T03:30:00.466Z,-0.26
2019-02-20T03:33:07.530Z,-0.52
2019-02-20T03:36:12.665Z,-0.43
2019-02-20T03:39:17.833Z,-0.50
2019-02-20T03:42:23.016Z,-0.50
2019-02-20T03:45:28.194Z,-0.36
2019-02-20T03:48:33.559Z,-0.34
2019-02-20T03:51:38.666Z,-0.41
2019-02-20T03:54:43.781Z,-0.48
2019-02-20T03:57:48.953Z,-0.35
2019-02-20T04:00:54.071Z,-0.52
2019-02-20T04:03:59.222Z,-0.41
2019-02-20T04:07:04.332Z,-0.38
2019-02-20T04:10:09.476Z,-0.49
2019-02-20T04:13:14.671Z,-0.68
2019-02-20T04:16:19.905Z,-0.56
2019-02-20T04:19:25.082Z,-0.56
2019-02-20T04:22:30.238Z,-0.52
2019-02-20T04:25:35.358Z,-0.45
2019-02-20T04:28:40.536Z,-0.57
2019-02-20T04:31:45.709Z,-0.53
2019-02-20T04:34:51.934Z,-0.55
2019-02-20T04:37:57.075Z,-0.66
2019-02-20T04:41:02.317Z,-0.57
2019-02-20T04:44:07.537Z,-0.60
2019-02-20T04:47:12.760Z,-0.60
2019-02-20T04:50:18.970Z,-0.65
2019-02-20T04:53:24.207Z,-0.71
2019-02-20T04:56:30.454Z,-0.67
2019-02-20T04:59:35.579Z,-0.75
2019-02-20T05:02:40.767Z,-0.73
2019-02-20T05:05:45.981Z,-0.72
2019-02-20T05:08:51.139Z,-0.77
2019-02-20T05:11:56.340Z,-0.64
2019-02-20T05:15:01.492Z,-0.68
2019-02-20T05:18:06.696Z,-0.72
2019-02-20T05:21:11.845Z,-0.61
2019-02-20T05:24:24.534Z,-0.68
2019-02-20T05:27:23.954Z,-0.76
2019-02-20T05:30:29.108Z,-0.71
2019-02-20T05:33:34.443Z,-0.76
2019-02-20T05:36:39.649Z,-0.62
2019-02-20T05:39:44.869Z,-0.64
2019-02-20T05:42:50.047Z,-0.73
2019-02-20T05:45:55.259Z,-0.70
2019-02-20T05:49:00.611Z,-0.61
2019-02-20T05:52:05.861Z,-0.50
2019-02-20T05:55:11.036Z,-0.62
2019-02-20T05:58:16.145Z,-0.56
2019-02-20T06:01:21.354Z,-0.53
2019-02-20T06:04:27.560Z,-0.62
2019-02-20T06:07:32.758Z,-0.68
2019-02-20T06:10:37.896Z,-0.69
2019-02-20T06:13:43.073Z,-0.72
2019-02-20T06:16:48.171Z,-0.82
2019-02-20T06:19:56.400Z,-0.75
2019-02-20T06:23:01.569Z,-0.67
2019-02-20T06:26:06.729Z,-0.73
2019-02-20T06:29:13.001Z,-0.76
2019-02-20T06:32:18.219Z,-0.58
2019-02-20T06:35:23.413Z,-0.62
2019-02-20T06:38:28.535Z,-0.75
2019-02-20T06:41:39.151Z,-0.81
2019-02-20T06:44:40.600Z,-0.74
2019-02-20T06:47:45.796Z,-0.69
2019-02-20T06:50:50.920Z,-0.65
2019-02-20T06:53:56.066Z,-0.63
2019-02-20T06:57:01.269Z,-0.68
2019-02-20T07:00:07.140Z,-0.51
2019-02-20T07:03:12.309Z,-0.34
2019-02-20T07:06:43.350Z,-0.57
2019-02-20T07:10:40.887Z,-0.20
2019-02-20T07:14:17.103Z,-0.26
2019-02-20T07:17:51.470Z,-0.24
2019-02-20T07:21:52.902Z,-0.27
2019-02-20T07:25:14.003Z,-0.26
2019-02-20T07:28:52.291Z,-0.26
2019-02-20T07:31:57.431Z,-0.27
2019-02-20T07:35:02.564Z,-0.23
2019-02-20T07:38:07.776Z,-0.23
2019-02-20T07:41:12.980Z,-0.16
2019-02-20T07:44:18.098Z,0.09
2019-02-20T07:47:23.227Z,0.07
2019-02-20T07:50:28.426Z,0.20
2019-02-20T07:53:33.539Z,0.06
2019-02-20T07:56:38.682Z,0.32
2019-02-20T07:59:43.828Z,0.31
2019-02-20T08:02:48.939Z,0.42
2019-02-20T08:05:54.149Z,0.39
2019-02-20T08:08:59.713Z,0.80
2019-02-20T08:12:04.870Z,0.72
2019-02-20T08:15:11.631Z,1.01
2019-02-20T08:18:16.735Z,0.96
2019-02-20T08:21:21.890Z,0.88
2019-02-20T08:24:26.986Z,1.05
2019-02-20T08:27:32.144Z,1.13
2019-02-20T08:30:37.274Z,1.35
2019-02-20T08:33:42.452Z,1.63
2019-02-20T08:36:47.574Z,1.46
2019-02-20T08:39:52.789Z,1.37
2019-02-20T08:42:57.956Z,1.01
2019-02-20T08:46:03.113Z,1.22
2019-02-20T08:49:08.226Z,1.85
2019-02-20T08:52:13.374Z,1.95
2019-02-20T08:55:19.018Z,2.32
2019-02-20T08:58:24.429Z,1.99
2019-02-20T09:01:29.615Z,2.38
2019-02-20T09:04:34.763Z,2.07
2019-02-20T09:07:39.934Z,1.99
2019-02-20T09:10:45.055Z,1.88
2019-02-20T09:13:50.221Z,2.14
2019-02-20T09:16:55.390Z,2.16
2019-02-20T09:20:00.546Z,2.43
2019-02-20T09:23:05.788Z,2.81
2019-02-20T09:26:11.019Z,2.65
2019-02-20T09:29:16.172Z,2.95
2019-02-20T09:32:21.351Z,3.61
2019-02-20T09:35:26.605Z,4.23
2019-02-20T09:38:31.709Z,5.19
2019-02-20T09:41:36.873Z,5.53
2019-02-20T09:44:49.467Z,4.89
2019-02-20T09:47:54.645Z,5.31
2019-02-20T09:50:59.869Z,5.08
2019-02-20T09:54:05.046Z,4.19
2019-02-20T09:57:10.196Z,4.75
2019-02-20T10:00:16.005Z,4.98
2019-02-20T10:03:21.210Z,4.94
2019-02-20T10:06:26.368Z,5.22
2019-02-20T10:09:31.547Z,6.02
2019-02-20T10:12:36.754Z,6.02
2019-02-20T10:15:42.021Z,5.13
2019-02-20T10:18:47.205Z,4.84
2019-02-20T10:21:53.438Z,5.22
2019-02-20T10:24:58.598Z,5.90
2019-02-20T10:28:03.766Z,6.07
2019-02-20T10:31:08.980Z,5.22
2019-02-20T10:34:14.273Z,5.68
2019-02-20T10:37:19.502Z,5.26
2019-02-20T10:40:24.772Z,5.43
2019-02-20T10:43:30.015Z,5.86
2019-02-20T10:46:35.173Z,6.02
2019-02-20T10:49:40.348Z,6.44
2019-02-20T10:52:45.509Z,6.00
2019-02-20T10:55:50.687Z,6.11
2019-02-20T10:58:55.805Z,5.96
2019-02-20T11:02:00.989Z,6.34
2019-02-20T11:05:07.433Z,6.73
2019-02-20T11:08:12.663Z,7.04
2019-02-20T11:11:17.825Z,7.45
2019-02-20T11:14:23.054Z,7.81
2019-02-20T11:17:29.362Z,7.48
2019-02-20T11:20:34.575Z,7.41
2019-02-20T11:23:39.786Z,7.49
2019-02-20T11:26:53.181Z,7.96
2019-02-20T11:29:51.763Z,8.28
2019-02-20T11:32:56.901Z,8.97
2019-02-20T11:36:02.054Z,8.73
2019-02-20T11:39:07.528Z,8.85
2019-02-20T11:42:13.786Z,8.93
2019-02-20T11:45:19.024Z,9.35
2019-02-20T11:48:24.287Z,8.99
2019-02-20T11:51:29.466Z,8.60
2019-02-20T11:54:34.627Z,8.63
2019-02-20T11:57:39.901Z,8.80
2019-02-20T12:00:45.035Z,9.10
2019-02-20T12:03:50.185Z,9.15
2019-02-20T12:06:55.371Z,9.25
2019-02-20T12:10:00.507Z,9.86
2019-02-20T12:13:05.748Z,9.66
2019-02-20T12:16:10.879Z,10.03
2019-02-20T12:19:16.003Z,10.26
2019-02-20T12:22:21.181Z,10.57
2019-02-20T12:25:26.343Z,9.85
2019-02-20T12:28:31.556Z,10.18
2019-02-20T12:31:37.814Z,10.32
2019-02-20T12:34:44.088Z,10.26
2019-02-20T12:37:49.327Z,10.15
2019-02-20T12:40:54.520Z,10.23
2019-02-20T12:43:59.732Z,10.41
2019-02-20T12:47:04.868Z,10.69
2019-02-20T12:50:10.301Z,11.00
2019-02-20T12:53:15.464Z,11.75
2019-02-20T12:56:20.713Z,11.94
2019-02-20T12:59:25.864Z,12.01
2019-02-20T13:02:31.087Z,12.04
2019-02-20T13:05:36.374Z,12.14
2019-02-20T13:08:41.573Z,11.87
2019-02-20T13:11:46.683Z,11.91
2019-02-20T13:14:51.875Z,12.16
2019-02-20T13:17:57.032Z,11.97
2019-02-20T13:21:02.411Z,12.03
2019-02-20T13:24:07.577Z,12.50
2019-02-20T13:27:12.748Z,12.82
2019-02-20T13:30:17.898Z,12.82
2019-02-20T13:33:23.145Z,12.94
2019-02-20T13:36:28.369Z,12.54
2019-02-20T13:39:33.576Z,11.89
2019-02-20T13:42:38.735Z,11.83
2019-02-20T13:45:43.968Z,12.01
2019-02-20T13:48:49.061Z,11.91
2019-02-20T13:51:54.261Z,11.54
2019-02-20T13:54:59.383Z,11.72
2019-02-20T13:58:05.628Z,11.60
2019-02-20T14:01:10.801Z,11.79
2019-02-20T14:04:15.966Z,11.87
2019-02-20T14:07:21.116Z,12.21
2019-02-20T14:10:26.301Z,12.19
2019-02-20T14:13:31.517Z,11.95
2019-02-20T14:16:36.674Z,12.14
2019-02-20T14:19:41.828Z,12.15
2019-02-20T14:22:47.017Z,11.70
2019-02-20T14:25:52.160Z,11.94
2019-02-20T14:28:57.331Z,11.89
2019-02-20T14:32:02.501Z,11.92
2019-02-20T14:35:08.277Z,11.83
2019-02-20T14:38:13.836Z,11.91
2019-02-20T14:41:21.399Z,11.94
2019-02-20T14:44:26.655Z,12.01
2019-02-20T14:47:32.189Z,11.94
2019-02-20T14:50:37.410Z,12.10
2019-02-20T14:53:42.531Z,12.09
2019-02-20T14:56:47.702Z,12.09
2019-02-20T14:59:52.822Z,12.29
2019-02-20T15:02:58.200Z,11.87
2019-02-20T15:06:03.380Z,11.74
2019-02-20T15:09:08.481Z,11.56
2019-02-20T15:12:15.258Z,11.61
2019-02-20T15:15:20.432Z,11.39
2019-02-20T15:18:25.669Z,11.72
2019-02-20T15:21:30.912Z,11.55
2019-02-20T15:24:36.034Z,11.33
2019-02-20T15:27:41.190Z,11.28
2019-02-20T15:30:46.310Z,11.36
2019-02-20T15:33:51.496Z,11.36
2019-02-20T15:36:56.701Z,11.24
2019-02-20T15:40:01.833Z,11.22
2019-02-20T15:43:07.360Z,10.88
2019-02-20T15:46:13.072Z,10.66
2019-02-20T15:49:18.202Z,10.74
2019-02-20T15:52:23.364Z,10.70
2019-02-20T15:55:28.760Z,10.41
2019-02-20T15:58:33.949Z,10.17
2019-02-20T16:01:39.062Z,10.05
2019-02-20T16:04:45.453Z,9.96
2019-02-20T16:07:50.520Z,9.93
2019-02-20T16:10:55.672Z,9.88
2019-02-20T16:14:00.796Z,9.75
2019-02-20T16:17:06.013Z,9.88
2019-02-20T16:20:11.883Z,9.59
2019-02-20T16:23:18.384Z,9.64
2019-02-20T16:26:23.554Z,9.46
2019-02-20T16:29:28.664Z,9.32
2019-02-20T16:32:33.847Z,9.19
2019-02-20T16:35:39.008Z,9.10
2019-02-20T16:38:44.198Z,9.15
2019-02-20T16:41:49.397Z,9.04
2019-02-20T16:44:54.585Z,8.96
2019-02-20T16:47:59.752Z,8.91
2019-02-20T16:51:04.946Z,8.64
2019-02-20T16:54:10.113Z,8.69
2019-02-20T16:57:15.307Z,8.52
2019-02-20T17:00:21.558Z,8.68
2019-02-20T17:03:27.071Z,8.59
2019-02-20T17:06:32.404Z,8.41
2019-02-20T17:09:37.578Z,8.34
2019-02-20T17:12:43.059Z,8.32
2019-02-20T17:15:48.654Z,8.48
2019-02-20T17:18:53.815Z,8.29
2019-02-20T17:21:58.946Z,8.20
2019-02-20T17:25:04.264Z,8.20
2019-02-20T17:28:09.403Z,8.03
2019-02-20T17:31:14.569Z,8.02
2019-02-20T17:34:19.728Z,7.89
2019-02-20T17:37:24.917Z,7.97
2019-02-20T17:40:30.079Z,7.87
2019-02-20T17:43:35.247Z,7.81
2019-02-20T17:46:40.383Z,7.69
2019-02-20T17:49:45.563Z,7.71
2019-02-20T17:52:50.687Z,7.63
2019-02-20T17:55:55.884Z,7.59
2019-02-20T17:59:01.018Z,7.51
2019-02-20T18:02:06.592Z,7.48
2019-02-20T18:05:13.671Z,7.37
2019-02-20T18:08:18.682Z,7.34
2019-02-20T18:11:23.809Z,7.30
2019-02-20T18:14:30.015Z,7.16
2019-02-20T18:17:35.211Z,7.06
2019-02-20T18:20:40.407Z,6.98
2019-02-20T18:23:45.774Z,6.92
2019-02-20T18:26:51.027Z,6.78
2019-02-20T18:29:56.203Z,6.75
2019-02-20T18:33:01.453Z,6.84
2019-02-20T18:36:06.823Z,7.02
2019-02-20T18:39:12.095Z,7.13
2019-02-20T18:42:17.669Z,6.88
2019-02-20T18:45:23.920Z,6.78
2019-02-20T18:48:29.066Z,6.72
2019-02-20T18:51:35.296Z,6.67
2019-02-20T18:54:40.517Z,6.59
2019-02-20T18:57:45.658Z,6.57
2019-02-20T19:00:50.817Z,6.43
2019-02-20T19:03:56.743Z,6.30
2019-02-20T19:07:12.660Z,6.18
2019-02-20T19:10:37.031Z,6.06
2019-02-20T19:14:15.981Z,5.95
2019-02-20T19:18:08.009Z,5.81
2019-02-20T19:21:51.305Z,5.59
2019-02-20T19:25:45.546Z,5.37
2019-02-20T19:29:27.745Z,5.24
2019-02-20T19:32:50.870Z,5.00
2019-02-20T19:37:04.848Z,4.80
2019-02-20T19:40:36.127Z,4.66
2019-02-20T19:44:18.529Z,4.56
2019-02-20T19:47:45.374Z,4.38
2019-02-20T19:51:14.861Z,4.29
2019-02-20T19:54:36.502Z,4.18
2019-02-20T19:58:17.564Z,4.06
2019-02-20T20:02:27.747Z,3.85
2019-02-20T20:06:13.261Z,3.85
2019-02-20T20:09:47.026Z,3.96
2019-02-20T20:13:32.080Z,3.91
2019-02-20T20:17:00.376Z,3.82
2019-02-20T20:20:20.336Z,3.74
2019-02-20T20:23:53.037Z,3.66
2019-02-20T20:27:29.556Z,3.61
2019-02-20T20:31:12.615Z,3.49
2019-02-20T20:35:10.924Z,3.37
2019-02-20T20:38:27.600Z,3.24
2019-02-20T20:41:58.103Z,3.18
2019-02-20T20:45:33.263Z,3.28
2019-02-20T20:49:25.400Z,3.20
2019-02-20T20:52:50.015Z,3.05
2019-02-20T20:56:57.725Z,2.98
2019-02-20T21:00:44.118Z,2.97
2019-02-20T21:04:21.656Z,2.89
2019-02-20T21:08:09.301Z,2.78
2019-02-20T21:12:13.867Z,2.59
2019-02-20T21:15:53.771Z,2.59
2019-02-20T21:19:26.516Z,2.51
2019-02-20T21:23:21.766Z,2.44
2019-02-20T21:26:52.455Z,2.34
2019-02-20T21:30:25.816Z,2.27
2019-02-20T21:33:48.204Z,2.13
2019-02-20T21:37:30.059Z,2.06
2019-02-20T21:41:01.125Z,2.09
2019-02-20T21:44:43.311Z,2.13
2019-02-20T21:48:35.492Z,1.94
2019-02-20T21:52:26.447Z,1.87
2019-02-20T21:56:10.436Z,1.89
2019-02-20T21:59:42.037Z,1.69
2019-02-20T22:02:58.822Z,1.53
2019-02-20T22:06:27.167Z,1.42
2019-02-20T22:09:57.566Z,1.45
2019-02-20T22:13:20.915Z,1.45
2019-02-20T22:17:25.347Z,1.27
2019-02-20T22:21:08.684Z,1.19
2019-02-20T22:24:31.610Z,1.10
2019-02-20T22:28:17.730Z,1.07
2019-02-20T22:32:07.710Z,1.06
2019-02-20T22:35:48.842Z,0.95
2019-02-20T22:39:40.978Z,0.95
2019-02-20T22:43:25.600Z,0.96
2019-02-20T22:46:48.407Z,1.00
2019-02-20T22:50:25.699Z,1.16
2019-02-20T22:53:55.584Z,1.20
2019-02-20T22:57:37.598Z,1.07
2019-02-20T23:01:38.905Z,1.09
2019-02-20T23:05:37.364Z,0.95
2019-02-20T23:09:14.964Z,0.74
2019-02-20T23:13:19.693Z,0.74
2019-02-20T23:16:24.859Z,0.85
2019-02-20T23:19:30.159Z,0.80
2019-02-20T23:22:35.263Z,0.76
2019-02-20T23:25:40.432Z,0.79
2019-02-20T23:28:46.002Z,0.71
2019-02-20T23:31:51.130Z,0.70
2019-02-20T23:34:56.305Z,0.74
2019-02-20T23:38:01.428Z,0.89
2019-02-20T23:41:07.763Z,0.81
2019-02-20T23:44:12.855Z,0.78
2019-02-20T23:47:18.137Z,0.81
2019-02-20T23:50:23.332Z,0.84
2019-02-20T23:53:28.543Z,0.83
2019-02-20T23:56:33.847Z,0.81
2019-02-20T23:59:39.076Z,0.79
